Terminal Aerodrome Forecast
Issued by NWS

Home | Current Version | Previous Version | Text Only | Print | Product List | Glossary Off
Versions: 1 2 3 4 5 6 7 8 9 10 11 12 13 14 15 16 17 18 19 20

128
FTUS43 KAPX 260531
TAFTVC
TAF
KTVC 260531Z 2606/2706 24006KT P6SM FEW250
     FM260900 00000KT P6SM FEW250
     FM261500 29007KT P6SM SCT050
     FM262100 31007KT P6SM SCT250
     FM270200 VRB03KT P6SM FEW250=

USA.gov is the U.S. government's official web portal to all federal, state and local government web resources and services.